Time;durP1;ratioP1;P1;durP2;ratioP2;P2;SDS_P1;SDS_P2;PMS_P1;PMS_P2;Temp;Humidity;BMP_temperature;BMP_pressure;BME280_temperature;BME280_humidity;BME280_pressure;Samples;Min_cycle;Max_cycle;Signal;HPM_P1;HPM_P2
2021/10/06 00:00:29;;;;;;;0.40;0.30;;;12.10;99.90;;;;;;4933075;29;20391;-76
2021/10/06 00:02:55;;;;;;;0.40;0.30;;;12.50;99.90;;;;;;4933821;29;20398;-77
2021/10/06 00:05:21;;;;;;;0.40;0.20;;;12.70;99.90;;;;;;4931605;29;20445;-76
2021/10/06 00:07:46;;;;;;;0.40;0.30;;;12.10;99.90;;;;;;4934128;29;20404;-75
2021/10/06 00:10:12;;;;;;;0.40;0.30;;;12.60;99.90;;;;;;4932704;29;20406;-77
2021/10/06 00:12:38;;;;;;;0.40;0.20;;;12.00;99.90;;;;;;4932056;29;20439;-76
2021/10/06 00:15:06;;;;;;;0.40;0.20;;;12.10;99.90;;;;;;4933978;29;20396;-76
2021/10/06 00:17:32;;;;;;;0.40;0.30;;;12.00;99.90;;;;;;4933064;29;20430;-76
2021/10/06 00:19:58;;;;;;;0.40;0.30;;;12.00;99.90;;;;;;4933643;29;20391;-76
2021/10/06 00:22:23;;;;;;;1.20;0.90;;;11.80;99.90;;;;;;4932926;29;20415;-76
2021/10/06 00:24:50;;;;;;;0.40;0.22;;;11.80;99.90;;;;;;4932658;29;20438;-76
2021/10/06 00:27:15;;;;;;;0.40;0.30;;;11.70;99.90;;;;;;4945451;28;20458;-74
2021/10/06 00:29:41;;;;;;;0.40;0.20;;;12.00;99.90;;;;;;4971704;28;20821;-77
2021/10/06 00:32:07;;;;;;;0.40;0.20;;;12.00;99.90;;;;;;4971869;28;20810;-76
2021/10/06 00:34:32;;;;;;;0.40;0.30;;;11.80;99.90;;;;;;4971283;28;20417;-76
2021/10/06 00:36:58;;;;;;;0.40;0.20;;;11.80;99.90;;;;;;4972050;28;20379;-77
2021/10/06 00:39:24;;;;;;;0.40;0.20;;;11.70;99.90;;;;;;4971254;28;20398;-76
2021/10/06 00:41:49;;;;;;;0.40;0.20;;;11.80;99.90;;;;;;4971760;28;20399;-77
2021/10/06 00:44:20;;;;;;;0.40;0.30;;;12.10;99.90;;;;;;4971345;28;20817;-76
2021/10/06 00:46:46;;;;;;;0.40;0.20;;;12.40;99.90;;;;;;4972049;28;20451;-75
2021/10/06 00:49:13;;;;;;;0.40;0.30;;;12.20;99.90;;;;;;4971611;28;20384;-76
2021/10/06 00:51:39;;;;;;;0.40;0.20;;;11.80;99.90;;;;;;4970997;28;20392;-75
2021/10/06 00:54:06;;;;;;;0.40;0.20;;;11.60;99.90;;;;;;4971817;28;20388;-76
2021/10/06 00:56:31;;;;;;;0.40;0.30;;;11.70;99.90;;;;;;4971248;28;20491;-76
2021/10/06 00:58:57;;;;;;;0.40;0.30;;;11.70;99.90;;;;;;4971932;28;20594;-76
2021/10/06 01:01:23;;;;;;;0.40;0.20;;;11.30;99.90;;;;;;4970911;28;20388;-76
2021/10/06 01:03:49;;;;;;;0.40;0.20;;;12.00;99.90;;;;;;4971800;28;20908;-76
2021/10/06 01:06:14;;;;;;;0.40;0.20;;;11.60;99.90;;;;;;4971663;28;20483;-76
2021/10/06 01:08:41;;;;;;;0.40;0.20;;;11.70;99.90;;;;;;4973234;28;20423;-76
2021/10/06 01:11:07;;;;;;;0.40;0.30;;;11.80;99.90;;;;;;4976057;28;20400;-77
2021/10/06 01:13:33;;;;;;;0.40;0.20;;;11.60;99.90;;;;;;4983226;28;20449;-77
2021/10/06 01:15:59;;;;;;;0.40;0.30;;;11.30;99.90;;;;;;4990915;28;20387;-77
2021/10/06 01:18:25;;;;;;;0.40;0.20;;;12.20;99.90;;;;;;4989817;28;20394;-76
2021/10/06 01:20:51;;;;;;;0.40;0.30;;;11.60;99.90;;;;;;4990696;28;20720;-76
2021/10/06 01:23:17;;;;;;;0.40;0.30;;;11.90;99.90;;;;;;4990807;28;20804;-76
2021/10/06 01:25:43;;;;;;;0.40;0.20;;;11.70;99.90;;;;;;4990410;28;20404;-77
2021/10/06 01:28:09;;;;;;;0.40;0.20;;;11.70;99.90;;;;;;4991213;28;20751;-75
2021/10/06 01:30:35;;;;;;;0.40;0.30;;;11.60;99.90;;;;;;4990095;28;20723;-75
2021/10/06 01:33:00;;;;;;;0.40;0.30;;;11.50;99.90;;;;;;4990720;28;20390;-76
2021/10/06 01:35:26;;;;;;;0.40;0.20;;;11.70;99.90;;;;;;4991668;28;20417;-78
2021/10/06 01:37:52;;;;;;;0.40;0.20;;;11.60;99.90;;;;;;4994745;28;20455;-75
2021/10/06 01:40:22;;;;;;;0.40;0.20;;;11.70;99.90;;;;;;4994161;28;20390;-75
2021/10/06 01:42:47;;;;;;;0.40;0.40;;;11.80;99.90;;;;;;4994821;28;20390;-75
2021/10/06 01:45:26;;;;;;;0.40;0.20;;;11.50;99.90;;;;;;4994388;28;20978;-76
2021/10/06 01:47:53;;;;;;;0.40;0.20;;;11.80;99.90;;;;;;4994648;28;20858;-77
2021/10/06 01:50:25;;;;;;;0.40;0.20;;;11.60;99.90;;;;;;4994161;28;20374;-76
2021/10/06 01:52:51;;;;;;;0.40;0.30;;;11.70;99.90;;;;;;4994356;28;20490;-74
2021/10/06 01:55:24;;;;;;;0.40;0.30;;;11.80;99.90;;;;;;4994004;28;20485;-75
2021/10/06 01:57:50;;;;;;;0.40;0.30;;;11.80;99.90;;;;;;4994502;28;20390;-75
2021/10/06 02:00:16;;;;;;;0.40;0.30;;;11.60;99.90;;;;;;4994291;28;20462;-75
2021/10/06 02:02:41;;;;;;;0.40;0.20;;;11.70;99.90;;;;;;4992881;28;21090;-74
2021/10/06 02:05:07;;;;;;;0.40;0.30;;;11.70;99.90;;;;;;4994129;28;20469;-74
2021/10/06 02:07:33;;;;;;;0.40;0.20;;;11.80;99.90;;;;;;4993303;28;20413;-74
2021/10/06 02:09:58;;;;;;;0.40;0.20;;;11.70;99.90;;;;;;4976423;28;20398;-74
2021/10/06 02:12:24;;;;;;;0.40;0.20;;;11.70;99.90;;;;;;4993305;28;20386;-75
2021/10/06 02:14:50;;;;;;;0.40;0.22;;;11.60;99.90;;;;;;4994169;28;20387;-75
2021/10/06 02:17:15;;;;;;;0.40;0.20;;;12.20;99.90;;;;;;4994004;28;20875;-73
2021/10/06 02:19:41;;;;;;;0.40;0.20;;;11.90;99.90;;;;;;4993189;28;21071;-75
2021/10/06 02:22:06;;;;;;;0.40;0.20;;;11.60;99.90;;;;;;4993869;28;20379;-74
2021/10/06 02:24:32;;;;;;;0.40;0.30;;;11.70;99.90;;;;;;4992665;28;20418;-74
2021/10/06 02:26:58;;;;;;;0.40;0.20;;;11.70;99.90;;;;;;4993606;28;20419;-74
2021/10/06 02:29:23;;;;;;;0.40;0.20;;;11.70;99.90;;;;;;4993088;28;20403;-74
2021/10/06 02:31:49;;;;;;;0.40;0.30;;;11.60;99.90;;;;;;4993279;28;20444;-74
2021/10/06 02:34:15;;;;;;;0.40;0.30;;;11.80;99.90;;;;;;4976350;28;20393;-74
2021/10/06 02:36:40;;;;;;;0.40;0.30;;;11.80;99.90;;;;;;4992468;28;20390;-74
2021/10/06 02:39:06;;;;;;;0.40;0.20;;;11.70;99.90;;;;;;4993966;28;20420;-74
2021/10/06 02:41:32;;;;;;;0.40;0.22;;;11.90;99.90;;;;;;4992734;28;20386;-74
2021/10/06 02:43:57;;;;;;;0.40;0.30;;;11.80;99.90;;;;;;4993539;28;20434;-73
2021/10/06 02:46:23;;;;;;;0.40;0.30;;;11.70;99.90;;;;;;4975456;28;20485;-73
2021/10/06 02:48:49;;;;;;;0.40;0.30;;;11.80;99.90;;;;;;4973948;28;20416;-75
2021/10/06 02:51:15;;;;;;;0.40;0.20;;;11.70;99.90;;;;;;4973957;28;20480;-74
2021/10/06 02:53:40;;;;;;;0.40;0.30;;;11.70;99.90;;;;;;4955765;28;20531;-74
2021/10/06 02:56:06;;;;;;;0.40;0.20;;;11.70;99.90;;;;;;4973268;28;20893;-74
2021/10/06 02:58:31;;;;;;;0.40;0.20;;;11.80;99.90;;;;;;4973009;28;20399;-74
2021/10/06 03:00:57;;;;;;;0.40;0.20;;;11.80;99.90;;;;;;4973653;28;20389;-74
2021/10/06 03:03:23;;;;;;;0.40;0.30;;;11.70;99.90;;;;;;4973499;28;20887;-74
2021/10/06 03:05:48;;;;;;;0.40;0.20;;;11.60;99.90;;;;;;4972861;28;20388;-74
2021/10/06 03:08:14;;;;;;;0.40;0.30;;;11.70;99.90;;;;;;4973747;28;20383;-73
2021/10/06 03:10:40;;;;;;;0.40;0.20;;;11.70;99.90;;;;;;4978829;28;20494;-74
2021/10/06 03:13:05;;;;;;;0.40;0.20;;;12.00;99.90;;;;;;4973892;28;20395;-74
2021/10/06 03:15:31;;;;;;;0.40;0.30;;;11.80;99.90;;;;;;4991450;28;20393;-74
2021/10/06 03:17:57;;;;;;;0.40;0.20;;;11.70;99.90;;;;;;4992554;28;20469;-74
2021/10/06 03:20:22;;;;;;;0.40;0.20;;;12.00;99.90;;;;;;4983168;28;20872;-73
2021/10/06 03:22:49;;;;;;;0.40;0.20;;;11.70;99.90;;;;;;4972557;28;20395;-74
2021/10/06 03:25:14;;;;;;;0.90;0.90;;;11.60;99.90;;;;;;4973019;28;20456;-73
2021/10/06 03:27:40;;;;;;;0.40;0.30;;;11.60;99.90;;;;;;4972075;28;20900;-74
2021/10/06 03:30:08;;;;;;;0.40;0.30;;;11.60;99.90;;;;;;4955707;28;20408;-74
2021/10/06 03:32:33;;;;;;;0.40;0.20;;;11.60;99.90;;;;;;4972187;28;20424;-74
2021/10/06 03:34:59;;;;;;;0.40;0.30;;;11.60;99.90;;;;;;4973132;28;20426;-73
2021/10/06 03:37:25;;;;;;;0.40;0.30;;;11.60;99.90;;;;;;4972836;28;20494;-73
2021/10/06 03:39:50;;;;;;;0.40;0.20;;;11.60;99.90;;;;;;4972370;28;20384;-74
2021/10/06 03:42:16;;;;;;;0.40;0.30;;;11.60;99.90;;;;;;4973306;28;20395;-74
2021/10/06 03:44:42;;;;;;;0.40;0.20;;;11.60;99.90;;;;;;4974097;28;20918;-74
2021/10/06 03:47:08;;;;;;;0.40;0.20;;;11.70;99.90;;;;;;4992411;28;20731;-73
2021/10/06 03:49:34;;;;;;;0.40;0.30;;;11.50;99.90;;;;;;4973879;28;20472;-74
2021/10/06 03:51:59;;;;;;;0.40;0.20;;;11.40;99.90;;;;;;4991289;28;20382;-75
2021/10/06 03:54:25;;;;;;;0.40;0.20;;;11.70;99.90;;;;;;4991596;28;20786;-74
2021/10/06 03:56:52;;;;;;;0.40;0.30;;;11.30;99.90;;;;;;4991810;28;20395;-74
2021/10/06 03:59:18;;;;;;;0.40;0.20;;;11.40;99.90;;;;;;4991279;28;20398;-74
2021/10/06 04:01:43;;;;;;;0.40;0.30;;;11.30;99.90;;;;;;4991573;28;20386;-74
2021/10/06 04:04:10;;;;;;;0.40;0.30;;;11.40;99.90;;;;;;4992175;28;20799;-74
2021/10/06 04:06:35;;;;;;;0.40;0.30;;;11.70;99.90;;;;;;4991661;28;20469;-74
2021/10/06 04:09:01;;;;;;;0.40;0.20;;;11.30;99.90;;;;;;4991718;28;20546;-74
2021/10/06 04:11:27;;;;;;;0.40;0.20;;;11.30;99.90;;;;;;4992109;28;20386;-74
2021/10/06 04:13:53;;;;;;;0.40;0.30;;;11.40;99.90;;;;;;4991380;28;20396;-74
2021/10/06 04:16:18;;;;;;;0.40;0.30;;;11.20;99.90;;;;;;4992388;28;20474;-74
2021/10/06 04:18:44;;;;;;;0.40;0.30;;;11.30;99.90;;;;;;4991077;28;20893;-74
2021/10/06 04:21:09;;;;;;;0.40;0.30;;;11.60;99.90;;;;;;4992646;28;20406;-74
2021/10/06 04:23:35;;;;;;;0.40;0.30;;;11.20;99.90;;;;;;4973844;28;20433;-74
2021/10/06 04:26:01;;;;;;;0.40;0.30;;;11.10;99.90;;;;;;4992340;28;20448;-74
2021/10/06 04:28:26;;;;;;;0.40;0.20;;;11.10;99.90;;;;;;4991957;28;20406;-74
2021/10/06 04:30:52;;;;;;;0.40;0.30;;;11.10;99.90;;;;;;4991596;28;20390;-74
2021/10/06 04:33:17;;;;;;;0.40;0.20;;;11.90;99.90;;;;;;4985433;28;21033;-74
2021/10/06 04:35:43;;;;;;;0.40;0.20;;;11.20;99.90;;;;;;4987804;28;20953;-75
2021/10/06 04:38:09;;;;;;;0.40;0.30;;;11.10;99.90;;;;;;4988386;28;20405;-74
2021/10/06 04:40:34;;;;;;;0.40;0.30;;;11.00;99.90;;;;;;4986676;28;20392;-77
2021/10/06 04:43:00;;;;;;;0.40;0.20;;;11.20;99.90;;;;;;4968298;28;20762;-74
2021/10/06 04:45:26;;;;;;;0.40;0.20;;;11.20;99.90;;;;;;4983809;28;20450;-75
2021/10/06 04:47:52;;;;;;;0.40;0.20;;;11.20;99.90;;;;;;4986858;28;20391;-74
2021/10/06 04:50:17;;;;;;;0.40;0.20;;;11.10;99.90;;;;;;4987337;28;20727;-75
2021/10/06 04:52:43;;;;;;;0.40;0.27;;;11.10;99.90;;;;;;4987332;28;20534;-75
2021/10/06 04:55:09;;;;;;;0.40;0.20;;;11.00;99.90;;;;;;4982735;28;21710;-75
2021/10/06 04:57:34;;;;;;;0.40;0.20;;;11.20;99.90;;;;;;4983596;28;20578;-73
2021/10/06 05:00:00;;;;;;;0.40;0.20;;;11.10;99.90;;;;;;4984292;28;20487;-76
2021/10/06 05:02:26;;;;;;;0.40;0.20;;;11.10;99.90;;;;;;4983213;28;20437;-75
2021/10/06 05:04:51;;;;;;;0.40;0.20;;;11.20;99.90;;;;;;4982065;28;21078;-74
2021/10/06 05:07:17;;;;;;;0.40;0.20;;;11.40;99.90;;;;;;4987105;28;20509;-74
2021/10/06 05:09:43;;;;;;;0.40;0.20;;;11.10;99.90;;;;;;4986344;28;20401;-70
2021/10/06 05:12:08;;;;;;;0.40;0.20;;;11.00;99.90;;;;;;4991499;28;20390;-73
2021/10/06 05:14:34;;;;;;;0.40;0.30;;;11.90;99.90;;;;;;4988940;28;20392;-74
2021/10/06 05:17:00;;;;;;;0.40;0.23;;;11.00;99.90;;;;;;4992131;28;21004;-73
2021/10/06 05:19:25;;;;;;;0.40;0.30;;;11.00;99.90;;;;;;4990971;28;20381;-73
2021/10/06 05:21:51;;;;;;;0.40;0.20;;;12.00;99.90;;;;;;4989200;28;20395;-72
2021/10/06 05:24:17;;;;;;;0.40;0.40;;;11.00;99.90;;;;;;4986235;28;20418;-72
2021/10/06 05:26:42;;;;;;;0.40;0.20;;;11.20;99.90;;;;;;4991067;28;20408;-73
2021/10/06 05:29:08;;;;;;;0.40;0.20;;;10.80;99.90;;;;;;4974393;28;20405;-72
2021/10/06 05:31:33;;;;;;;0.40;0.20;;;11.00;99.90;;;;;;4971845;28;20436;-73
2021/10/06 05:33:59;;;;;;;0.40;0.30;;;11.10;99.90;;;;;;4983253;28;20485;-72
2021/10/06 05:36:25;;;;;;;0.40;0.20;;;10.90;99.90;;;;;;4987726;28;20437;-72
2021/10/06 05:38:51;;;;;;;0.40;0.20;;;10.90;99.90;;;;;;4987190;28;20479;-73
2021/10/06 05:41:17;;;;;;;0.40;0.20;;;11.00;99.90;;;;;;4985531;28;20402;-72
2021/10/06 05:43:42;;;;;;;0.40;0.30;;;11.10;99.90;;;;;;4981524;28;20422;-73
2021/10/06 05:46:08;;;;;;;0.40;0.30;;;11.00;99.90;;;;;;4969290;28;20417;-72
2021/10/06 05:48:34;;;;;;;0.40;0.20;;;10.90;99.90;;;;;;4982944;28;20401;-72
2021/10/06 05:50:59;;;;;;;0.40;0.20;;;10.90;99.90;;;;;;4987713;28;20395;-72
2021/10/06 05:53:25;;;;;;;0.40;0.30;;;10.00;99.90;;;;;;4979081;28;20404;-72
2021/10/06 05:55:51;;;;;;;0.40;0.20;;;11.10;99.90;;;;;;4983901;28;20381;-72
2021/10/06 05:58:18;;;;;;;0.40;0.20;;;10.90;99.90;;;;;;4980584;28;20403;-72
2021/10/06 06:00:47;;;;;;;0.40;0.20;;;11.00;99.90;;;;;;4983005;28;20397;-72
2021/10/06 06:03:13;;;;;;;0.40;0.20;;;10.80;99.90;;;;;;4988723;28;20906;-72
2021/10/06 06:05:40;;;;;;;0.40;0.20;;;10.80;99.90;;;;;;4971873;28;20478;-72
2021/10/06 06:08:06;;;;;;;0.40;0.20;;;10.60;99.90;;;;;;4991735;28;20388;-72
2021/10/06 06:10:32;;;;;;;0.40;0.30;;;10.60;99.90;;;;;;4990627;28;20389;-72
2021/10/06 06:12:58;;;;;;;0.40;0.20;;;10.90;99.90;;;;;;4990345;28;20398;-72
2021/10/06 06:15:23;;;;;;;0.40;0.20;;;10.70;99.90;;;;;;4990401;28;20383;-72
2021/10/06 06:17:49;;;;;;;0.40;0.20;;;10.80;99.90;;;;;;4993142;28;20386;-72
2021/10/06 06:20:17;;;;;;;0.40;0.20;;;11.90;99.90;;;;;;4993101;28;20461;-72
2021/10/06 06:22:43;;;;;;;0.40;0.28;;;10.90;99.90;;;;;;4990927;28;20890;-73
2021/10/06 06:25:10;;;;;;;0.40;0.20;;;10.90;99.90;;;;;;4992232;28;20426;-72
2021/10/06 06:27:36;;;;;;;0.40;0.30;;;11.00;99.90;;;;;;4991732;28;20883;-73
2021/10/06 06:30:04;;;;;;;0.40;0.20;;;11.00;99.90;;;;;;4992756;28;20379;-73
2021/10/06 06:32:29;;;;;;;0.40;0.20;;;11.00;99.90;;;;;;4992702;28;20386;-72
2021/10/06 06:34:55;;;;;;;0.40;0.20;;;11.40;99.90;;;;;;4991562;28;21192;-72
2021/10/06 06:37:21;;;;;;;0.40;0.20;;;11.10;99.90;;;;;;4992809;28;20373;-72
2021/10/06 06:39:46;;;;;;;0.40;0.30;;;11.10;99.90;;;;;;4992202;28;20457;-73
2021/10/06 06:42:12;;;;;;;0.40;0.20;;;11.30;99.90;;;;;;4992696;28;20814;-72
2021/10/06 06:44:38;;;;;;;0.40;0.20;;;11.20;99.90;;;;;;4991802;28;20465;-73
2021/10/06 06:47:04;;;;;;;0.40;0.20;;;11.20;99.90;;;;;;4992875;28;20401;-75
2021/10/06 06:49:29;;;;;;;0.40;0.20;;;11.00;99.90;;;;;;4975197;28;20387;-73
2021/10/06 06:51:55;;;;;;;0.40;0.20;;;11.20;99.90;;;;;;4991672;28;20478;-73
2021/10/06 06:54:21;;;;;;;0.40;0.20;;;11.10;99.90;;;;;;4992478;28;20927;-73
2021/10/06 06:56:47;;;;;;;0.40;0.30;;;11.00;99.90;;;;;;4992141;28;20399;-73
2021/10/06 06:59:13;;;;;;;0.40;0.20;;;11.20;99.90;;;;;;4992389;28;20747;-74
2021/10/06 07:01:39;;;;;;;0.40;0.25;;;11.20;99.90;;;;;;4991994;28;20391;-73
2021/10/06 07:04:05;;;;;;;0.40;0.20;;;11.20;99.90;;;;;;4992571;28;20529;-72
2021/10/06 07:06:34;;;;;;;0.40;0.20;;;11.30;99.90;;;;;;4992699;28;20399;-76
2021/10/06 07:09:03;;;;;;;0.40;0.30;;;11.20;99.90;;;;;;4974589;28;20485;-74
2021/10/06 07:11:29;;;;;;;0.40;0.30;;;11.20;99.90;;;;;;4992180;28;20386;-73
2021/10/06 07:13:54;;;;;;;0.40;0.20;;;11.30;99.90;;;;;;4974569;28;20403;-73
2021/10/06 07:16:20;;;;;;;0.40;0.30;;;11.30;99.90;;;;;;4992730;28;20395;-73
2021/10/06 07:18:46;;;;;;;0.40;0.30;;;11.30;99.90;;;;;;4992022;28;20393;-73
2021/10/06 07:21:12;;;;;;;0.40;0.20;;;11.40;99.90;;;;;;4993200;28;20386;-73
2021/10/06 07:23:38;;;;;;;0.40;0.30;;;11.30;99.90;;;;;;4992563;28;20403;-73
2021/10/06 07:26:04;;;;;;;0.40;0.30;;;11.50;99.90;;;;;;4993211;28;20403;-73
2021/10/06 07:28:29;;;;;;;0.40;0.30;;;11.60;99.90;;;;;;4993035;28;20422;-73
2021/10/06 07:30:55;;;;;;;0.40;0.30;;;11.60;99.90;;;;;;4974439;28;20530;-73
2021/10/06 07:33:21;;;;;;;0.40;0.20;;;11.50;99.90;;;;;;4974665;28;20920;-73
2021/10/06 07:35:47;;;;;;;0.40;0.20;;;11.60;99.90;;;;;;4992237;28;20430;-73
2021/10/06 07:38:13;;;;;;;0.40;0.20;;;11.60;99.90;;;;;;4992952;28;20406;-73
2021/10/06 07:40:38;;;;;;;0.40;0.30;;;12.10;99.90;;;;;;4992025;28;20890;-74
2021/10/06 07:43:04;;;;;;;0.40;0.20;;;11.80;99.90;;;;;;4992161;28;20922;-74
2021/10/06 07:45:30;;;;;;;0.40;0.30;;;11.80;99.90;;;;;;4983135;28;20396;-75
2021/10/06 07:47:56;;;;;;;0.40;0.30;;;11.80;99.90;;;;;;4972465;28;20392;-73
2021/10/06 07:50:22;;;;;;;0.40;0.20;;;11.60;99.90;;;;;;4972938;28;20416;-73
2021/10/06 07:52:47;;;;;;;0.40;0.30;;;11.80;99.90;;;;;;4971982;28;20891;-73
2021/10/06 07:55:14;;;;;;;0.40;0.20;;;11.80;99.90;;;;;;4973043;28;20384;-74
2021/10/06 07:57:39;;;;;;;0.40;0.30;;;11.80;99.90;;;;;;4972620;28;20420;-75
2021/10/06 08:00:06;;;;;;;0.40;0.20;;;11.90;99.90;;;;;;4972483;28;20805;-73
2021/10/06 08:02:32;;;;;;;0.40;0.22;;;11.90;99.90;;;;;;4973013;28;20388;-73
2021/10/06 08:04:57;;;;;;;0.40;0.20;;;11.90;99.90;;;;;;4971422;28;20671;-74
2021/10/06 08:07:23;;;;;;;0.40;0.20;;;12.00;99.90;;;;;;4972605;28;20399;-73
2021/10/06 08:09:49;;;;;;;0.40;0.22;;;12.00;99.90;;;;;;4954798;28;20380;-73
2021/10/06 08:12:14;;;;;;;0.40;0.20;;;11.90;99.90;;;;;;4972875;28;20394;-73
2021/10/06 08:14:40;;;;;;;0.60;0.50;;;12.30;99.90;;;;;;4972235;28;20403;-74
2021/10/06 08:17:06;;;;;;;0.40;0.30;;;12.10;99.90;;;;;;4972057;28;20402;-73
2021/10/06 08:19:32;;;;;;;0.40;0.30;;;11.80;99.90;;;;;;4972632;28;20380;-73
2021/10/06 08:21:58;;;;;;;0.40;0.20;;;12.10;99.90;;;;;;4971795;28;20392;-73
2021/10/06 08:24:24;;;;;;;0.40;0.20;;;12.20;99.90;;;;;;4972518;28;20494;-73
2021/10/06 08:26:49;;;;;;;0.40;0.20;;;12.30;99.90;;;;;;4971847;28;20418;-75
2021/10/06 08:29:15;;;;;;;0.40;0.20;;;12.30;99.90;;;;;;4971907;28;20396;-74
2021/10/06 08:31:41;;;;;;;0.40;0.20;;;12.20;99.90;;;;;;4971665;28;20884;-74
2021/10/06 08:34:07;;;;;;;0.40;0.30;;;12.20;99.90;;;;;;4954421;28;20436;-74
2021/10/06 08:36:33;;;;;;;0.40;0.30;;;12.30;99.90;;;;;;4972046;28;20388;-76
2021/10/06 08:39:00;;;;;;;0.40;0.20;;;12.30;99.90;;;;;;4971507;28;20419;-74
2021/10/06 08:41:25;;;;;;;0.40;0.30;;;12.40;99.90;;;;;;4955028;28;20420;-74
2021/10/06 08:43:51;;;;;;;0.40;0.20;;;12.50;99.90;;;;;;4971352;28;20869;-75
2021/10/06 08:46:17;;;;;;;0.40;0.30;;;12.80;99.90;;;;;;4987744;28;20823;-74
2021/10/06 08:48:43;;;;;;;0.40;0.30;;;12.70;99.90;;;;;;4990664;28;20429;-73
2021/10/06 08:51:09;;;;;;;0.40;0.30;;;12.90;99.90;;;;;;4991584;28;20477;-73
2021/10/06 08:53:34;;;;;;;0.40;0.20;;;12.80;99.90;;;;;;4991552;28;20383;-74
2021/10/06 08:56:00;;;;;;;0.40;0.30;;;12.90;99.90;;;;;;4990917;28;20440;-76
2021/10/06 08:58:26;;;;;;;0.40;0.20;;;12.80;99.90;;;;;;4991625;28;20382;-74
2021/10/06 09:00:59;;;;;;;0.40;0.20;;;13.00;99.90;;;;;;4990781;28;20461;-75
2021/10/06 09:03:35;;;;;;;0.40;0.20;;;13.00;99.90;;;;;;4991436;28;20410;-72
2021/10/06 09:06:07;;;;;;;0.40;0.20;;;13.00;99.90;;;;;;4987560;28;20442;-72
2021/10/06 09:08:37;;;;;;;0.40;0.20;;;12.90;99.90;;;;;;4991368;28;20390;-72
2021/10/06 09:11:05;;;;;;;0.40;0.20;;;13.00;99.90;;;;;;4990546;28;20390;-72
2021/10/06 09:13:34;;;;;;;0.40;0.20;;;12.80;99.90;;;;;;4991564;28;20526;-72
2021/10/06 09:15:59;;;;;;;0.40;0.20;;;12.90;99.90;;;;;;4990692;28;20379;-72
2021/10/06 09:18:30;;;;;;;0.40;0.20;;;12.90;99.90;;;;;;4991259;28;20383;-72
2021/10/06 09:20:58;;;;;;;0.40;0.20;;;13.00;99.90;;;;;;4990571;28;20578;-72
2021/10/06 09:23:25;;;;;;;0.40;0.20;;;12.90;99.90;;;;;;4991174;28;20382;-72
2021/10/06 09:25:53;;;;;;;0.40;0.20;;;12.90;99.90;;;;;;4989809;28;20481;-73
2021/10/06 09:28:41;;;;;;;0.40;0.20;;;12.90;99.90;;;;;;4990787;28;20429;-73
2021/10/06 09:31:10;;;;;;;0.40;0.20;;;13.10;99.90;;;;;;4972966;28;20395;-72
2021/10/06 09:33:58;;;;;;;0.40;0.22;;;13.10;99.90;;;;;;4991005;28;20887;-73
2021/10/06 09:36:35;;;;;;;0.40;0.20;;;13.20;99.90;;;;;;4991444;28;20436;-73
2021/10/06 09:39:10;;;;;;;0.40;0.20;;;13.10;99.90;;;;;;4990988;28;21003;-73
2021/10/06 09:41:37;;;;;;;0.40;0.30;;;13.20;99.90;;;;;;4991251;28;20390;-73
2021/10/06 09:44:10;;;;;;;0.40;0.20;;;13.20;99.90;;;;;;4990140;28;20406;-74
2021/10/06 09:46:55;;;;;;;0.40;0.20;;;13.10;99.90;;;;;;4972689;28;20416;-73
2021/10/06 09:49:36;;;;;;;0.40;0.20;;;13.20;99.90;;;;;;4971647;28;20392;-72
2021/10/06 09:52:21;;;;;;;0.40;0.20;;;13.10;99.90;;;;;;4970894;28;20807;-73
2021/10/06 09:54:56;;;;;;;0.40;0.20;;;13.10;99.90;;;;;;4970935;28;20396;-71
2021/10/06 09:57:28;;;;;;;0.40;0.20;;;13.10;99.90;;;;;;4974785;28;20427;-75
2021/10/06 09:59:54;;;;;;;0.40;0.20;;;12.90;99.90;;;;;;4974459;28;20734;-73
2021/10/06 10:02:21;;;;;;;0.40;0.30;;;13.20;99.90;;;;;;4975429;28;20388;-72
2021/10/06 10:04:47;;;;;;;0.40;0.20;;;13.20;99.90;;;;;;4974641;28;20433;-72
2021/10/06 10:07:14;;;;;;;0.40;0.20;;;13.50;99.90;;;;;;4975091;28;20384;-73
2021/10/06 10:09:40;;;;;;;0.40;0.30;;;13.30;99.90;;;;;;4974480;28;20384;-75
2021/10/06 10:12:08;;;;;;;0.40;0.20;;;13.30;99.90;;;;;;4974077;28;20384;-73
2021/10/06 10:14:34;;;;;;;0.40;0.20;;;13.50;99.90;;;;;;4975266;28;20392;-72
2021/10/06 10:16:59;;;;;;;0.40;0.30;;;13.40;99.90;;;;;;4973787;28;20462;-73
2021/10/06 10:19:27;;;;;;;0.40;0.20;;;13.50;99.90;;;;;;4974428;28;20438;-72
2021/10/06 10:21:54;;;;;;;0.40;0.30;;;13.70;99.90;;;;;;4973327;28;20408;-73
2021/10/06 10:24:25;;;;;;;0.40;0.20;;;13.80;99.90;;;;;;4975272;28;20908;-72
2021/10/06 10:27:10;;;;;;;0.40;0.20;;;13.70;99.90;;;;;;4973558;28;20416;-73
2021/10/06 10:29:46;;;;;;;0.40;0.30;;;13.70;99.90;;;;;;4974786;28;20395;-72
2021/10/06 10:32:20;;;;;;;0.40;0.20;;;13.80;99.90;;;;;;4974264;28;20489;-72
2021/10/06 10:34:59;;;;;;;0.40;0.30;;;14.00;99.90;;;;;;4974221;28;20403;-72
2021/10/06 10:37:49;;;;;;;0.40;0.20;;;13.90;99.90;;;;;;4974648;28;20388;-73
2021/10/06 10:40:32;;;;;;;0.40;0.30;;;13.70;99.90;;;;;;4974294;28;20397;-73
2021/10/06 10:43:01;;;;;;;0.40;0.20;;;13.80;99.90;;;;;;4973601;28;20400;-72
2021/10/06 10:46:06;;;;;;;0.40;0.20;;;13.90;99.90;;;;;;4983291;28;20418;-73
2021/10/06 10:48:38;;;;;;;0.40;0.20;;;13.80;99.90;;;;;;4971210;28;20445;-73
2021/10/06 10:51:06;;;;;;;0.40;0.30;;;14.00;99.90;;;;;;4992946;28;20744;-72
2021/10/06 10:53:50;;;;;;;0.40;0.20;;;14.10;99.90;;;;;;4993676;28;20387;-73
2021/10/06 10:56:43;;;;;;;0.40;0.20;;;13.80;99.90;;;;;;4993217;28;20390;-73
2021/10/06 10:59:18;;;;;;;0.40;0.20;;;14.00;99.90;;;;;;4989672;28;20402;-73
2021/10/06 11:01:45;;;;;;;0.50;0.50;;;14.00;99.90;;;;;;4993466;28;20432;-73
2021/10/06 11:04:24;;;;;;;0.40;0.20;;;14.30;99.90;;;;;;4992474;28;20437;-73
2021/10/06 11:06:53;;;;;;;0.40;0.20;;;14.00;99.90;;;;;;4992895;28;20394;-72
2021/10/06 11:09:31;;;;;;;0.40;0.30;;;13.90;99.90;;;;;;4992728;28;20386;-73
2021/10/06 11:12:19;;;;;;;0.40;0.20;;;13.90;99.90;;;;;;4992338;28;20386;-73
2021/10/06 11:14:47;;;;;;;0.40;0.20;;;14.00;99.90;;;;;;4980575;28;20883;-72
2021/10/06 11:17:15;;;;;;;0.40;0.20;;;14.10;99.90;;;;;;4992414;28;20413;-73
2021/10/06 11:19:47;;;;;;;0.40;0.20;;;14.20;99.90;;;;;;4993101;28;20403;-72
2021/10/06 11:22:21;;;;;;;0.40;0.20;;;14.40;99.90;;;;;;4991969;28;21154;-72
2021/10/06 11:24:52;;;;;;;0.40;0.30;;;14.10;99.90;;;;;;4993063;28;20450;-72
2021/10/06 11:27:18;;;;;;;0.40;0.20;;;14.10;99.90;;;;;;4992938;28;20411;-72
2021/10/06 11:29:49;;;;;;;0.40;0.20;;;14.10;99.90;;;;;;4993011;28;20759;-72
2021/10/06 11:32:16;;;;;;;0.40;0.20;;;14.40;99.60;;;;;;4992394;28;20469;-72
2021/10/06 11:34:46;;;;;;;0.40;0.20;;;14.60;99.90;;;;;;4992795;28;20401;-72
2021/10/06 11:37:19;;;;;;;0.40;0.30;;;15.50;99.90;;;;;;4991947;28;20846;-72
2021/10/06 11:39:46;;;;;;;0.40;0.20;;;15.30;96.90;;;;;;4993138;28;20474;-72
2021/10/06 11:42:13;;;;;;;0.40;0.20;;;14.80;97.40;;;;;;4991922;28;20386;-75
2021/10/06 11:44:39;;;;;;;0.40;0.20;;;15.00;98.80;;;;;;4971973;28;20781;-73
2021/10/06 11:47:07;;;;;;;0.40;0.30;;;15.20;99.00;;;;;;4972286;28;20376;-73
2021/10/06 11:49:36;;;;;;;0.40;0.20;;;14.30;99.50;;;;;;4973238;28;20396;-73
2021/10/06 11:52:03;;;;;;;0.40;0.20;;;14.20;98.60;;;;;;4972266;28;20376;-73
2021/10/06 11:54:29;;;;;;;0.40;0.40;;;14.40;99.90;;;;;;4973015;28;20936;-73
2021/10/06 11:57:00;;;;;;;0.40;0.30;;;14.40;99.90;;;;;;4972281;28;20475;-74
2021/10/06 11:59:30;;;;;;;0.40;0.30;;;14.10;99.70;;;;;;4973111;28;20471;-73
2021/10/06 12:02:04;;;;;;;0.40;0.30;;;14.20;99.40;;;;;;4972065;28;20388;-74
2021/10/06 12:04:36;;;;;;;0.40;0.20;;;14.00;99.90;;;;;;4972856;28;20423;-74
2021/10/06 12:07:04;;;;;;;0.40;0.20;;;13.90;99.90;;;;;;4971889;28;20496;-74
2021/10/06 12:09:47;;;;;;;0.40;0.30;;;13.80;99.90;;;;;;4975197;28;20433;-74
2021/10/06 12:12:30;;;;;;;0.40;0.30;;;13.50;99.90;;;;;;4991241;28;20399;-75
2021/10/06 12:15:01;;;;;;;0.40;0.20;;;13.30;99.90;;;;;;4991402;28;20387;-74
2021/10/06 12:17:29;;;;;;;0.40;0.20;;;13.10;99.90;;;;;;4991739;28;20399;-75
2021/10/06 12:20:07;;;;;;;0.40;0.20;;;12.90;99.90;;;;;;4990602;28;20866;-75
2021/10/06 12:22:45;;;;;;;0.40;0.20;;;12.50;99.90;;;;;;4972023;28;20861;-75
2021/10/06 12:25:14;;;;;;;1.10;0.90;;;12.30;99.90;;;;;;4971402;28;20446;-75
2021/10/06 12:27:42;;;;;;;0.40;0.20;;;12.20;99.90;;;;;;4972074;28;20969;-75
2021/10/06 12:30:28;;;;;;;0.40;0.20;;;12.40;99.90;;;;;;4971394;28;20460;-74
2021/10/06 12:33:04;;;;;;;0.40;0.20;;;12.40;99.90;;;;;;4972058;28;20461;-74
2021/10/06 12:35:39;;;;;;;0.40;0.20;;;12.80;99.90;;;;;;4972351;28;20424;-74
2021/10/06 12:38:05;;;;;;;0.40;0.20;;;13.00;99.90;;;;;;4971520;28;20384;-74
2021/10/06 12:40:40;;;;;;;0.40;0.20;;;13.10;99.90;;;;;;4954974;28;20403;-74
2021/10/06 12:43:11;;;;;;;0.40;0.20;;;13.30;99.90;;;;;;4971285;28;20451;-75
2021/10/06 12:46:07;;;;;;;0.40;0.20;;;13.20;99.90;;;;;;4972256;28;20797;-74
2021/10/06 12:48:50;;;;;;;0.40;0.30;;;13.20;99.90;;;;;;4971936;28;20426;-74
2021/10/06 12:51:29;;;;;;;0.40;0.20;;;13.30;99.90;;;;;;4970973;28;20889;-73